Time;durP1;ratioP1;P1;durP2;ratioP2;P2;SDS_P1;SDS_P2;PMS_P1;PMS_P2;Temp;Humidity;BMP_temperature;BMP_pressure;BME280_temperature;BME280_humidity;BME280_pressure;Samples;Min_cycle;Max_cycle;Signal;HPM_P1;HPM_P2
2023/09/15 00:00:20;;;;;;;3.88;2.30;;;;;;;;;;5032653;28;20022;-73
2023/09/15 00:02:46;;;;;;;4.72;2.13;;;;;;;;;;5031549;28;20083;-73
2023/09/15 00:05:12;;;;;;;9.88;2.08;;;;;;;;;;5033286;28;20018;-73
2023/09/15 00:07:37;;;;;;;8.45;3.28;;;;;;;;;;5031796;28;20477;-73
2023/09/15 00:10:05;;;;;;;3.57;2.00;;;;;;;;;;5030228;28;20071;-72
2023/09/15 00:12:30;;;;;;;6.90;3.42;;;;;;;;;;5027626;28;20265;-73
2023/09/15 00:14:55;;;;;;;5.85;1.92;;;;;;;;;;5032028;28;20039;-73
2023/09/15 00:17:20;;;;;;;4.88;2.20;;;;;;;;;;5029372;28;20384;-72
2023/09/15 00:19:46;;;;;;;4.45;2.22;;;;;;;;;;5030712;28;20435;-72
2023/09/15 00:22:11;;;;;;;4.75;2.08;;;;;;;;;;5033200;28;20434;-72
2023/09/15 00:24:37;;;;;;;9.43;2.50;;;;;;;;;;5032078;28;20049;-72
2023/09/15 00:27:02;;;;;;;5.53;2.10;;;;;;;;;;5032863;28;20770;-72
2023/09/15 00:29:27;;;;;;;8.25;2.53;;;;;;;;;;5030573;28;20279;-72
2023/09/15 00:31:52;;;;;;;7.75;2.80;;;;;;;;;;5032766;28;20018;-72
2023/09/15 00:34:18;;;;;;;5.15;2.75;;;;;;;;;;5032224;28;20026;-73
2023/09/15 00:36:45;;;;;;;5.33;2.27;;;;;;;;;;5033739;28;20018;-72
2023/09/15 00:39:11;;;;;;;8.00;2.40;;;;;;;;;;5031311;28;20264;-73
2023/09/15 00:41:36;;;;;;;7.57;2.75;;;;;;;;;;5031613;28;20017;-73
2023/09/15 00:44:01;;;;;;;6.05;2.08;;;;;;;;;;5030807;28;20487;-72
2023/09/15 00:46:26;;;;;;;10.17;2.30;;;;;;;;;;5031281;28;20499;-72
2023/09/15 00:48:51;;;;;;;11.13;2.22;;;;;;;;;;5029575;28;20280;-73
2023/09/15 00:51:17;;;;;;;3.72;2.00;;;;;;;;;;5032044;28;20021;-72
2023/09/15 00:53:42;;;;;;;4.25;2.20;;;;;;;;;;5031783;28;20025;-72
2023/09/15 00:56:08;;;;;;;9.85;2.60;;;;;;;;;;5025597;28;20021;-72
2023/09/15 00:58:36;;;;;;;9.30;2.58;;;;;;;;;;5027556;28;20025;-72
2023/09/15 01:01:02;;;;;;;8.13;2.38;;;;;;;;;;5029654;28;20029;-73
2023/09/15 01:03:29;;;;;;;4.57;2.17;;;;;;;;;;5027094;28;20109;-73
2023/09/15 01:05:55;;;;;;;10.23;2.80;;;;;;;;;;5029861;28;20048;-72
2023/09/15 01:08:20;;;;;;;7.13;2.10;;;;;;;;;;5031137;28;20470;-73
2023/09/15 01:10:45;;;;;;;7.13;2.17;;;;;;;;;;5029790;28;20029;-73
2023/09/15 01:13:10;;;;;;;10.23;2.03;;;;;;;;;;5031593;28;20036;-73
2023/09/15 01:15:54;;;;;;;7.60;2.40;;;;;;;;;;5031170;28;20313;-73
2023/09/15 01:18:23;;;;;;;11.18;2.80;;;;;;;;;;5026606;28;20009;-72
2023/09/15 01:21:08;;;;;;;7.82;2.40;;;;;;;;;;5029753;28;20029;-73
2023/09/15 01:23:43;;;;;;;3.95;1.98;;;;;;;;;;5030686;28;20017;-72
2023/09/15 01:26:14;;;;;;;9.07;2.58;;;;;;;;;;5025561;28;20026;-72
2023/09/15 01:29:14;;;;;;;11.77;2.75;;;;;;;;;;5030035;28;20045;-73
2023/09/15 01:31:39;;;;;;;5.90;2.90;;;;;;;;;;4994921;28;20488;-73
2023/09/15 01:34:05;;;;;;;5.32;2.50;;;;;;;;;;5031566;28;20029;-73
2023/09/15 01:36:30;;;;;;;6.35;2.63;;;;;;;;;;5028345;28;20017;-72
2023/09/15 01:38:55;;;;;;;4.57;2.20;;;;;;;;;;5029017;28;20021;-72
2023/09/15 01:41:21;;;;;;;5.10;2.10;;;;;;;;;;5031622;28;20252;-72
2023/09/15 01:43:46;;;;;;;10.23;2.97;;;;;;;;;;5030199;28;20283;-72
2023/09/15 01:46:11;;;;;;;9.47;2.43;;;;;;;;;;5030685;28;20057;-72
2023/09/15 01:48:36;;;;;;;6.93;2.40;;;;;;;;;;5028790;28;20789;-72
2023/09/15 01:51:03;;;;;;;6.15;2.40;;;;;;;;;;5029749;28;20315;-72
2023/09/15 01:53:28;;;;;;;7.60;2.55;;;;;;;;;;5027494;28;20535;-73
2023/09/15 01:55:53;;;;;;;8.27;2.10;;;;;;;;;;5030346;28;20101;-72
2023/09/15 01:58:19;;;;;;;7.27;3.30;;;;;;;;;;5028279;28;20108;-72
2023/09/15 02:00:44;;;;;;;5.22;2.50;;;;;;;;;;5030561;28;20330;-72
2023/09/15 02:03:09;;;;;;;9.98;2.40;;;;;;;;;;5029522;28;20154;-72
2023/09/15 02:05:35;;;;;;;6.93;2.28;;;;;;;;;;5028838;28;20465;-72
2023/09/15 02:08:00;;;;;;;7.40;2.95;;;;;;;;;;5027615;28;20052;-72
2023/09/15 02:10:25;;;;;;;8.13;2.55;;;;;;;;;;5029413;28;20438;-72
2023/09/15 02:12:50;;;;;;;5.27;2.73;;;;;;;;;;5030792;28;20036;-72
2023/09/15 02:15:17;;;;;;;4.03;2.17;;;;;;;;;;5030466;28;20335;-73
2023/09/15 02:17:43;;;;;;;9.90;2.35;;;;;;;;;;5029637;28;20288;-72
2023/09/15 02:20:18;;;;;;;6.45;2.78;;;;;;;;;;5029683;28;20017;-72
2023/09/15 02:22:43;;;;;;;8.27;2.17;;;;;;;;;;5030344;28;20082;-72
2023/09/15 02:25:09;;;;;;;9.35;2.28;;;;;;;;;;5027489;28;20477;-73
2023/09/15 02:27:34;;;;;;;6.50;2.47;;;;;;;;;;5029006;28;20022;-72
2023/09/15 02:30:00;;;;;;;11.02;2.80;;;;;;;;;;5028971;28;20010;-72
2023/09/15 02:32:25;;;;;;;4.70;2.03;;;;;;;;;;5029428;28;20025;-72
2023/09/15 02:34:50;;;;;;;4.90;2.30;;;;;;;;;;5029728;28;20303;-72
2023/09/15 02:37:15;;;;;;;9.07;2.50;;;;;;;;;;5028050;28;20278;-72
2023/09/15 02:39:40;;;;;;;8.33;2.60;;;;;;;;;;5029363;28;20666;-72
2023/09/15 02:42:06;;;;;;;6.30;2.77;;;;;;;;;;5028327;28;20299;-72
2023/09/15 02:44:32;;;;;;;7.82;2.70;;;;;;;;;;5040381;28;20260;-72
2023/09/15 02:46:57;;;;;;;7.07;2.47;;;;;;;;;;5032937;28;20055;-72
2023/09/15 02:49:22;;;;;;;6.30;2.28;;;;;;;;;;5041311;28;20045;-72
2023/09/15 02:51:47;;;;;;;5.13;2.53;;;;;;;;;;5029717;28;20547;-72
2023/09/15 02:54:13;;;;;;;6.93;2.45;;;;;;;;;;5033919;28;20260;-72
2023/09/15 02:56:38;;;;;;;5.03;2.28;;;;;;;;;;5040476;28;20024;-72
2023/09/15 02:59:03;;;;;;;9.13;2.30;;;;;;;;;;5026556;28;20035;-72
2023/09/15 03:01:29;;;;;;;15.52;2.60;;;;;;;;;;5029793;28;20022;-72
2023/09/15 03:03:54;;;;;;;7.28;2.53;;;;;;;;;;5036106;28;20029;-72
2023/09/15 03:06:19;;;;;;;7.93;2.80;;;;;;;;;;5029663;28;20013;-72
2023/09/15 03:08:44;;;;;;;11.07;2.88;;;;;;;;;;5025424;28;20670;-72
2023/09/15 03:11:17;;;;;;;7.40;2.83;;;;;;;;;;5035870;28;20473;-72
2023/09/15 03:13:42;;;;;;;6.70;2.70;;;;;;;;;;5039024;28;20021;-72
2023/09/15 03:16:11;;;;;;;5.05;2.13;;;;;;;;;;5039076;28;20031;-72
2023/09/15 03:18:37;;;;;;;7.35;3.05;;;;;;;;;;5047032;28;20400;-72
2023/09/15 03:21:02;;;;;;;7.05;2.17;;;;;;;;;;5037367;28;20032;-72
2023/09/15 03:23:27;;;;;;;9.18;2.33;;;;;;;;;;5043557;28;20024;-72
2023/09/15 03:26:02;;;;;;;9.77;3.20;;;;;;;;;;5038529;28;20435;-72
2023/09/15 03:28:28;;;;;;;10.70;2.60;;;;;;;;;;5034548;28;20272;-72
2023/09/15 03:30:53;;;;;;;7.97;2.13;;;;;;;;;;5045442;28;20067;-72
2023/09/15 03:33:19;;;;;;;6.47;2.42;;;;;;;;;;5040578;28;20044;-72
2023/09/15 03:35:44;;;;;;;8.60;2.80;;;;;;;;;;5040665;28;20021;-73
2023/09/15 03:38:09;;;;;;;6.43;2.33;;;;;;;;;;5048514;28;20282;-72
2023/09/15 03:40:34;;;;;;;13.15;2.58;;;;;;;;;;5033177;28;20195;-72
2023/09/15 03:42:59;;;;;;;6.30;2.35;;;;;;;;;;5029865;28;20167;-72
2023/09/15 03:45:25;;;;;;;4.15;2.40;;;;;;;;;;5036843;28;20096;-72
2023/09/15 03:47:50;;;;;;;13.52;2.50;;;;;;;;;;5043950;28;20021;-72
2023/09/15 03:50:19;;;;;;;8.05;2.50;;;;;;;;;;5033039;28;20014;-72
2023/09/15 03:52:45;;;;;;;5.43;2.20;;;;;;;;;;5039982;28;20017;-72
2023/09/15 03:55:10;;;;;;;9.85;2.65;;;;;;;;;;5050302;28;20017;-72
2023/09/15 03:57:36;;;;;;;5.82;2.15;;;;;;;;;;5037147;28;20028;-72
2023/09/15 04:00:03;;;;;;;9.90;2.55;;;;;;;;;;5032162;28;20226;-72
2023/09/15 04:02:28;;;;;;;5.32;2.85;;;;;;;;;;5030453;28;20519;-72
2023/09/15 04:04:54;;;;;;;8.65;2.50;;;;;;;;;;5048627;28;20017;-72
2023/09/15 04:07:19;;;;;;;4.13;2.28;;;;;;;;;;5044446;28;20023;-72
2023/09/15 04:09:45;;;;;;;10.05;3.33;;;;;;;;;;5035181;28;20018;-72
2023/09/15 04:12:10;;;;;;;7.10;2.40;;;;;;;;;;5028008;28;20476;-72
2023/09/15 04:14:35;;;;;;;3.40;2.17;;;;;;;;;;5038021;28;20430;-72
2023/09/15 04:17:03;;;;;;;8.80;2.28;;;;;;;;;;5046371;28;20287;-72
2023/09/15 04:19:29;;;;;;;4.55;1.92;;;;;;;;;;5044275;28;20498;-72
2023/09/15 04:21:54;;;;;;;4.38;2.05;;;;;;;;;;5040872;28;20017;-72
2023/09/15 04:24:19;;;;;;;7.78;2.35;;;;;;;;;;5039353;28;20021;-72
2023/09/15 04:26:45;;;;;;;13.38;2.55;;;;;;;;;;5022201;28;20036;-72
2023/09/15 04:29:10;;;;;;;8.70;2.30;;;;;;;;;;5039319;28;20552;-72
2023/09/15 04:31:37;;;;;;;6.88;2.08;;;;;;;;;;5046874;28;20298;-72
2023/09/15 04:34:02;;;;;;;5.70;2.33;;;;;;;;;;5042216;28;20029;-72
2023/09/15 04:36:27;;;;;;;11.57;2.45;;;;;;;;;;5051226;28;20027;-72
2023/09/15 04:38:53;;;;;;;7.50;2.03;;;;;;;;;;5038639;28;20037;-72
2023/09/15 04:41:18;;;;;;;10.23;3.03;;;;;;;;;;5039597;28;20028;-72
2023/09/15 04:43:43;;;;;;;7.97;2.60;;;;;;;;;;5046855;28;20710;-72
2023/09/15 04:46:08;;;;;;;6.13;2.97;;;;;;;;;;5033852;28;20454;-72
2023/09/15 04:48:33;;;;;;;5.83;2.20;;;;;;;;;;5036828;28;20438;-72
2023/09/15 04:50:59;;;;;;;4.05;2.05;;;;;;;;;;5034576;28;20280;-72
2023/09/15 04:53:24;;;;;;;3.90;2.07;;;;;;;;;;5038521;28;20026;-72
2023/09/15 04:55:49;;;;;;;5.77;2.30;;;;;;;;;;5027524;28;20272;-72
2023/09/15 04:58:15;;;;;;;7.07;2.47;;;;;;;;;;5029855;28;20326;-72
2023/09/15 05:00:40;;;;;;;7.25;2.45;;;;;;;;;;5028353;28;20108;-72
2023/09/15 05:03:08;;;;;;;6.68;2.72;;;;;;;;;;5023445;28;21544;-72
2023/09/15 05:05:33;;;;;;;9.85;2.50;;;;;;;;;;5026003;28;20041;-72
2023/09/15 05:07:58;;;;;;;9.90;2.13;;;;;;;;;;5027082;28;20091;-72
2023/09/15 05:10:23;;;;;;;6.15;2.65;;;;;;;;;;5033784;28;20283;-72
2023/09/15 05:12:48;;;;;;;4.93;2.57;;;;;;;;;;5043920;28;20658;-72
2023/09/15 05:15:14;;;;;;;6.30;2.43;;;;;;;;;;5037911;28;20287;-72
2023/09/15 05:17:39;;;;;;;10.95;2.70;;;;;;;;;;5027555;28;20322;-72
2023/09/15 05:20:05;;;;;;;10.25;4.07;;;;;;;;;;5031655;28;20021;-72
2023/09/15 05:22:30;;;;;;;12.55;2.65;;;;;;;;;;5039657;28;20476;-72
2023/09/15 05:24:55;;;;;;;15.37;2.77;;;;;;;;;;5044813;28;20482;-72
2023/09/15 05:27:21;;;;;;;10.63;2.88;;;;;;;;;;5033975;28;20346;-72
2023/09/15 05:29:46;;;;;;;8.90;2.33;;;;;;;;;;5028669;28;20529;-72
2023/09/15 05:32:11;;;;;;;9.50;4.03;;;;;;;;;;5021819;28;20044;-72
2023/09/15 05:34:36;;;;;;;6.60;2.43;;;;;;;;;;5026799;28;20284;-72
2023/09/15 05:37:03;;;;;;;5.40;2.50;;;;;;;;;;5028858;28;20359;-72
2023/09/15 05:39:28;;;;;;;4.30;2.65;;;;;;;;;;5027022;28;20275;-72
2023/09/15 05:41:53;;;;;;;7.90;2.80;;;;;;;;;;5045296;28;20017;-73
2023/09/15 05:44:18;;;;;;;5.72;2.28;;;;;;;;;;5028718;28;20069;-73
2023/09/15 05:46:44;;;;;;;7.93;2.70;;;;;;;;;;5026035;28;20108;-72
2023/09/15 05:49:09;;;;;;;7.03;2.38;;;;;;;;;;5026966;28;20279;-72
2023/09/15 05:51:34;;;;;;;6.50;2.50;;;;;;;;;;5024155;28;20105;-72
2023/09/15 05:53:59;;;;;;;6.78;2.28;;;;;;;;;;5030749;28;20314;-72
2023/09/15 05:56:25;;;;;;;8.80;2.17;;;;;;;;;;5030641;28;20364;-73
2023/09/15 05:58:50;;;;;;;11.73;2.42;;;;;;;;;;5034219;28;20438;-72
2023/09/15 06:01:15;;;;;;;8.00;2.40;;;;;;;;;;5031557;28;20112;-73
2023/09/15 06:03:42;;;;;;;8.73;2.50;;;;;;;;;;5029651;28;20033;-72
2023/09/15 06:06:07;;;;;;;8.50;2.60;;;;;;;;;;5025954;28;20260;-72
2023/09/15 06:08:32;;;;;;;8.80;2.70;;;;;;;;;;5024543;28;20483;-72
2023/09/15 06:10:58;;;;;;;7.20;2.23;;;;;;;;;;5023023;28;20418;-72
2023/09/15 06:13:23;;;;;;;11.55;3.03;;;;;;;;;;5025532;28;20279;-73
2023/09/15 06:15:48;;;;;;;3.88;1.92;;;;;;;;;;5023462;28;20530;-72
2023/09/15 06:18:13;;;;;;;9.07;2.30;;;;;;;;;;5025456;28;20025;-72
2023/09/15 06:20:38;;;;;;;4.37;1.97;;;;;;;;;;5028874;28;20268;-72
2023/09/15 06:23:04;;;;;;;4.93;2.53;;;;;;;;;;5022475;28;20287;-72
2023/09/15 06:25:32;;;;;;;5.57;1.77;;;;;;;;;;5028786;28;20022;-72
2023/09/15 06:27:59;;;;;;;4.13;1.80;;;;;;;;;;5024617;28;20104;-72
2023/09/15 06:30:24;;;;;;;10.13;1.92;;;;;;;;;;5022620;28;20024;-72
2023/09/15 06:32:49;;;;;;;4.67;1.83;;;;;;;;;;5024342;28;20041;-72
2023/09/15 06:35:14;;;;;;;3.77;1.80;;;;;;;;;;5025752;28;20311;-72
2023/09/15 06:37:40;;;;;;;12.30;2.00;;;;;;;;;;5033292;28;20276;-73
2023/09/15 06:40:06;;;;;;;6.50;1.77;;;;;;;;;;5023733;28;20469;-73
2023/09/15 06:42:31;;;;;;;6.50;2.20;;;;;;;;;;5026530;28;20058;-73
2023/09/15 06:44:56;;;;;;;5.80;1.60;;;;;;;;;;5018743;28;20112;-73
2023/09/15 06:47:21;;;;;;;4.53;1.58;;;;;;;;;;5022909;28;20022;-73
2023/09/15 06:49:47;;;;;;;5.37;2.10;;;;;;;;;;5023810;28;20021;-73
2023/09/15 06:52:12;;;;;;;6.30;1.63;;;;;;;;;;5028301;28;20314;-73
2023/09/15 06:54:37;;;;;;;5.53;2.00;;;;;;;;;;5028313;28;20271;-73
2023/09/15 06:57:02;;;;;;;6.90;2.20;;;;;;;;;;5028443;28;20456;-73
2023/09/15 06:59:28;;;;;;;5.35;1.60;;;;;;;;;;5026250;28;20025;-73
2023/09/15 07:01:53;;;;;;;6.28;1.90;;;;;;;;;;5027256;28;20025;-73
2023/09/15 07:04:18;;;;;;;5.30;1.53;;;;;;;;;;5028515;28;20029;-73
2023/09/15 07:06:43;;;;;;;7.23;2.10;;;;;;;;;;5028587;28;20408;-73
2023/09/15 07:09:08;;;;;;;5.57;1.92;;;;;;;;;;5039245;28;20082;-73
2023/09/15 07:11:34;;;;;;;11.27;2.17;;;;;;;;;;5025682;28;20071;-74
2023/09/15 07:13:59;;;;;;;8.25;2.13;;;;;;;;;;5030226;28;20503;-74
2023/09/15 07:16:24;;;;;;;7.30;2.17;;;;;;;;;;5028749;28;20060;-74
2023/09/15 07:18:49;;;;;;;5.60;1.53;;;;;;;;;;5027776;28;20388;-74
2023/09/15 07:21:15;;;;;;;4.90;1.83;;;;;;;;;;5030662;28;20394;-74
2023/09/15 07:23:40;;;;;;;5.90;2.10;;;;;;;;;;5028597;28;20021;-74
2023/09/15 07:26:05;;;;;;;7.00;2.07;;;;;;;;;;5033754;28;20029;-74
2023/09/15 07:28:30;;;;;;;6.10;1.63;;;;;;;;;;5037490;28;20100;-74
2023/09/15 07:31:04;;;;;;;6.20;1.53;;;;;;;;;;5031311;28;20017;-73
2023/09/15 07:33:30;;;;;;;5.68;1.95;;;;;;;;;;5027559;28;20287;-73
2023/09/15 07:35:59;;;;;;;4.30;1.75;;;;;;;;;;5033228;28;20017;-74
2023/09/15 07:38:25;;;;;;;3.78;1.75;;;;;;;;;;5034359;28;20061;-74
2023/09/15 07:40:50;;;;;;;6.63;1.67;;;;;;;;;;5031345;28;20081;-74
2023/09/15 07:43:15;;;;;;;6.23;2.30;;;;;;;;;;5028896;28;20022;-74
2023/09/15 07:45:40;;;;;;;4.87;1.80;;;;;;;;;;5031794;28;20029;-74
2023/09/15 07:48:05;;;;;;;6.73;2.03;;;;;;;;;;5030557;28;20022;-74
2023/09/15 07:50:33;;;;;;;13.77;2.00;;;;;;;;;;5030797;28;20499;-74
2023/09/15 07:52:58;;;;;;;7.03;2.42;;;;;;;;;;5028029;28;20023;-74
2023/09/15 07:55:24;;;;;;;5.00;2.30;;;;;;;;;;5029696;28;20032;-74
2023/09/15 07:57:49;;;;;;;7.82;2.53;;;;;;;;;;5030875;28;20109;-74
2023/09/15 08:00:14;;;;;;;4.80;2.30;;;;;;;;;;5030690;28;20029;-74
2023/09/15 08:02:39;;;;;;;7.87;2.00;;;;;;;;;;5032406;28;20558;-74
2023/09/15 08:05:05;;;;;;;4.45;1.77;;;;;;;;;;5028842;28;20673;-74
2023/09/15 08:07:30;;;;;;;2.85;1.58;;;;;;;;;;5029415;28;20044;-74
2023/09/15 08:10:00;;;;;;;6.40;1.63;;;;;;;;;;5028099;28;20487;-74
2023/09/15 08:12:26;;;;;;;6.90;2.20;;;;;;;;;;5036664;28;20048;-74
2023/09/15 08:14:51;;;;;;;9.63;2.15;;;;;;;;;;5033212;28;20480;-74
2023/09/15 08:17:16;;;;;;;4.63;1.80;;;;;;;;;;5030120;28;20279;-74
2023/09/15 08:19:42;;;;;;;3.73;1.90;;;;;;;;;;5037771;28;20030;-74
2023/09/15 08:22:07;;;;;;;5.38;1.90;;;;;;;;;;5028209;28;20814;-74
2023/09/15 08:24:32;;;;;;;4.37;1.53;;;;;;;;;;5030125;28;20022;-74
2023/09/15 08:26:57;;;;;;;5.30;1.80;;;;;;;;;;5040490;28;20271;-74
2023/09/15 08:29:23;;;;;;;8.13;1.83;;;;;;;;;;5030830;28;20041;-74
2023/09/15 08:31:48;;;;;;;8.80;2.30;;;;;;;;;;5032531;28;20022;-74
2023/09/15 08:34:13;;;;;;;6.07;2.72;;;;;;;;;;5025472;28;20064;-74
2023/09/15 08:36:38;;;;;;;4.43;2.30;;;;;;;;;;5025961;28;20365;-74
2023/09/15 08:39:03;;;;;;;6.10;1.80;;;;;;;;;;5031563;28;20204;-74
2023/09/15 08:41:30;;;;;;;7.15;1.90;;;;;;;;;;5031724;28;20395;-74
2023/09/15 08:43:55;;;;;;;2.90;1.60;;;;;;;;;;5029920;28;20032;-74
2023/09/15 08:46:22;;;;;;;5.88;1.20;;;;;;;;;;5028764;28;20018;-73
2023/09/15 08:48:49;;;;;;;3.78;1.42;;;;;;;;;;5036308;28;20025;-73
2023/09/15 08:51:14;;;;;;;6.30;2.00;;;;;;;;;;5025896;28;21488;-73
2023/09/15 08:53:41;;;;;;;7.80;2.40;;;;;;;;;;5025495;28;20040;-73
2023/09/15 08:56:06;;;;;;;5.13;1.50;;;;;;;;;;5033955;28;20025;-73
2023/09/15 08:58:33;;;;;;;6.03;1.70;;;;;;;;;;5030307;28;20052;-73
2023/09/15 09:00:58;;;;;;;11.27;1.65;;;;;;;;;;5031230;28;20112;-73
2023/09/15 09:03:24;;;;;;;4.22;1.90;;;;;;;;;;5029738;28;20160;-73
2023/09/15 09:05:49;;;;;;;6.27;2.23;;;;;;;;;;5033207;28;20487;-73
2023/09/15 09:08:16;;;;;;;3.58;1.35;;;;;;;;;;5030884;28;20022;-73
2023/09/15 09:10:41;;;;;;;4.18;1.60;;;;;;;;;;5033164;28;20044;-73
2023/09/15 09:13:06;;;;;;;4.38;1.50;;;;;;;;;;5037038;28;20487;-73
2023/09/15 09:15:32;;;;;;;6.57;1.87;;;;;;;;;;5029493;28;20044;-73
2023/09/15 09:17:57;;;;;;;3.03;1.40;;;;;;;;;;5031766;28;20063;-73
2023/09/15 09:20:24;;;;;;;7.57;1.73;;;;;;;;;;5030399;28;20106;-73
2023/09/15 09:22:49;;;;;;;4.07;1.52;;;;;;;;;;5027666;28;20315;-73
2023/09/15 09:25:14;;;;;;;6.03;2.00;;;;;;;;;;5031057;28;20018;-73
2023/09/15 09:27:39;;;;;;;3.90;1.65;;;;;;;;;;5028117;28;20438;-73
2023/09/15 09:30:05;;;;;;;8.63;2.07;;;;;;;;;;5031832;28;20032;-73
2023/09/15 09:32:30;;;;;;;5.72;1.58;;;;;;;;;;5032792;28;20035;-73
2023/09/15 09:34:55;;;;;;;5.47;1.70;;;;;;;;;;5029932;28;20018;-73
2023/09/15 09:37:25;;;;;;;7.63;1.80;;;;;;;;;;5029996;28;20284;-73
2023/09/15 09:39:51;;;;;;;4.90;1.15;;;;;;;;;;5031080;28;20022;-73
2023/09/15 09:42:16;;;;;;;3.58;1.70;;;;;;;;;;5030908;28;20025;-73
2023/09/15 09:44:42;;;;;;;4.45;1.70;;;;;;;;;;5033406;28;20051;-73
2023/09/15 09:47:07;;;;;;;6.43;1.70;;;;;;;;;;5026660;28;20531;-73
2023/09/15 09:49:34;;;;;;;3.42;1.13;;;;;;;;;;5027800;28;20287;-73
2023/09/15 09:51:59;;;;;;;4.95;1.60;;;;;;;;;;5027360;28;20018;-73
2023/09/15 09:54:26;;;;;;;1.42;0.70;;;;;;;;;;5030721;28;20069;-73
2023/09/15 09:56:53;;;;;;;3.35;1.35;;;;;;;;;;5035787;28;20134;-73
2023/09/15 09:59:18;;;;;;;2.97;1.02;;;;;;;;;;5033147;28;20029;-73
2023/09/15 10:01:43;;;;;;;2.97;1.17;;;;;;;;;;5029577;28;20103;-72
2023/09/15 10:04:09;;;;;;;4.00;1.55;;;;;;;;;;5031687;28;20430;-72
2023/09/15 10:06:35;;;;;;;8.37;1.77;;;;;;;;;;5032336;28;20018;-72
2023/09/15 10:09:00;;;;;;;4.38;1.70;;;;;;;;;;5031437;28;20683;-73
2023/09/15 10:11:26;;;;;;;3.90;1.50;;;;;;;;;;5030475;28;20105;-72
2023/09/15 10:13:52;;;;;;;6.55;2.03;;;;;;;;;;5027263;28;20080;-73
2023/09/15 10:16:17;;;;;;;4.90;1.60;;;;;;;;;;5032111;28;20086;-73
2023/09/15 10:18:44;;;;;;;7.38;1.75;;;;;;;;;;5028538;28;20075;-73
2023/09/15 10:21:09;;;;;;;5.05;1.40;;;;;;;;;;5030868;28;20033;-73
2023/09/15 10:23:35;;;;;;;3.83;1.45;;;;;;;;;;5032761;28;20029;-73
2023/09/15 10:26:01;;;;;;;2.60;0.75;;;;;;;;;;5028743;28;20515;-73
2023/09/15 10:28:29;;;;;;;4.18;2.00;;;;;;;;;;5026849;28;20109;-73
2023/09/15 10:30:58;;;;;;;6.88;1.60;;;;;;;;;;5032431;28;20059;-73
2023/09/15 10:33:26;;;;;;;4.63;1.73;;;;;;;;;;5026543;28;20199;-73
2023/09/15 10:35:51;;;;;;;6.53;1.98;;;;;;;;;;5028241;28;20045;-73
2023/09/15 10:38:27;;;;;;;3.65;1.65;;;;;;;;;;5028185;28;20069;-73
2023/09/15 10:40:54;;;;;;;1.45;0.73;;;;;;;;;;5027679;28;20025;-73
2023/09/15 10:43:19;;;;;;;3.88;1.38;;;;;;;;;;5023435;28;20032;-73
2023/09/15 10:45:57;;;;;;;6.20;1.70;;;;;;;;;;5033026;28;20108;-73
2023/09/15 10:48:22;;;;;;;3.67;1.25;;;;;;;;;;5026541;28;20347;-73
2023/09/15 10:50:47;;;;;;;3.45;1.27;;;;;;;;;;5026757;28;20156;-73
2023/09/15 10:53:14;;;;;;;2.70;1.10;;;;;;;;;;5030129;28;20107;-72
2023/09/15 10:55:40;;;;;;;7.70;2.08;;;;;;;;;;5035936;28;20100;-73
2023/09/15 10:58:06;;;;;;;7.07;1.55;;;;;;;;;;5028662;28;20029;-73
2023/09/15 11:00:31;;;;;;;5.22;1.60;;;;;;;;;;5028822;28;20029;-72
2023/09/15 11:02:57;;;;;;;2.75;1.65;;;;;;;;;;5024528;28;20033;-72
2023/09/15 11:05:22;;;;;;;0.95;0.40;;;;;;;;;;5026378;28;20041;-72
2023/09/15 11:07:47;;;;;;;4.18;1.30;;;;;;;;;;5028604;28;20017;-73
2023/09/15 11:10:13;;;;;;;3.97;1.60;;;;;;;;;;5024831;28;20030;-73
2023/09/15 11:12:38;;;;;;;3.57;1.60;;;;;;;;;;5023281;28;20029;-72
2023/09/15 11:15:04;;;;;;;2.43;1.13;;;;;;;;;;5028511;28;20298;-73
2023/09/15 11:17:30;;;;;;;2.25;1.30;;;;;;;;;;5024026;28;20475;-73
2023/09/15 11:19:57;;;;;;;5.70;1.67;;;;;;;;;;5029936;28;20272;-73
2023/09/15 11:22:22;;;;;;;5.20;1.73;;;;;;;;;;5034265;28;20025;-73
2023/09/15 11:24:50;;;;;;;5.70;1.23;;;;;;;;;;5031611;28;20018;-73
2023/09/15 11:27:16;;;;;;;3.50;1.90;;;;;;;;;;5028534;28;20307;-73
2023/09/15 11:29:42;;;;;;;2.22;1.35;;;;;;;;;;5033777;28;20049;-73
2023/09/15 11:32:07;;;;;;;3.57;1.27;;;;;;;;;;5026085;28;20026;-73
2023/09/15 11:34:32;;;;;;;3.80;1.63;;;;;;;;;;5028550;28;20419;-73
2023/09/15 11:36:59;;;;;;;4.70;0.83;;;;;;;;;;5025298;28;20132;-73
2023/09/15 11:39:25;;;;;;;3.40;0.60;;;;;;;;;;5027125;28;20333;-73
2023/09/15 11:41:56;;;;;;;4.03;1.40;;;;;;;;;;5026799;28;20431;-73
2023/09/15 11:44:31;;;;;;;3.78;1.70;;;;;;;;;;5022034;28;20018;-73
2023/09/15 11:46:58;;;;;;;7.75;1.63;;;;;;;;;;5022369;28;20034;-73
2023/09/15 11:49:24;;;;;;;4.43;0.98;;;;;;;;;;5025033;28;20101;-72
2023/09/15 11:51:50;;;;;;;3.95;1.60;;;;;;;;;;5021173;28;20052;-73
2023/09/15 11:54:15;;;;;;;2.90;1.38;;;;;;;;;;5022452;28;20376;-73
2023/09/15 11:56:42;;;;;;;1.65;1.15;;;;;;;;;;5018507;28;20080;-73
2023/09/15 11:59:07;;;;;;;4.45;1.08;;;;;;;;;;5020757;28;20036;-72
2023/09/15 12:01:32;;;;;;;2.97;1.00;;;;;;;;;;5019072;28;20013;-73
2023/09/15 12:03:58;;;;;;;2.15;0.70;;;;;;;;;;5026613;28;20043;-73
2023/09/15 12:06:23;;;;;;;1.17;0.60;;;;;;;;;;5024918;28;20018;-72
2023/09/15 12:08:50;;;;;;;1.90;1.00;;;;;;;;;;5031290;28;20159;-73
2023/09/15 12:11:15;;;;;;;3.88;1.08;;;;;;;;;;5030102;28;20013;-73
2023/09/15 12:13:40;;;;;;;2.17;0.90;;;;;;;;;;5033797;28;20079;-73
2023/09/15 12:16:06;;;;;;;1.48;0.65;;;;;;;;;;5028765;28;20053;-73
2023/09/15 12:18:38;;;;;;;3.95;1.40;;;;;;;;;;5027987;28;20391;-73
2023/09/15 12:21:09;;;;;;;2.90;1.50;;;;;;;;;;5033930;28;20029;-73
2023/09/15 12:23:35;;;;;;;5.05;1.17;;;;;;;;;;5030053;28;20030;-73
2023/09/15 12:26:00;;;;;;;1.80;1.00;;;;;;;;;;5028765;28;20022;-73
2023/09/15 12:28:25;;;;;;;2.63;1.17;;;;;;;;;;5034047;28;20028;-73
2023/09/15 12:30:50;;;;;;;2.40;1.30;;;;;;;;;;5023461;28;20286;-73
2023/09/15 12:33:19;;;;;;;4.43;1.57;;;;;;;;;;5034751;28;20564;-73
2023/09/15 12:35:46;;;;;;;8.52;1.30;;;;;;;;;;5033737;28;20029;-73
2023/09/15 12:38:11;;;;;;;2.22;1.20;;;;;;;;;;5029680;28;20021;-72
2023/09/15 12:40:38;;;;;;;3.67;1.33;;;;;;;;;;5038068;28;20017;-73
2023/09/15 12:43:05;;;;;;;2.60;1.25;;;;;;;;;;5038640;28;20032;-73
2023/09/15 12:45:30;;;;;;;2.55;1.20;;;;;;;;;;5032457;28;20039;-73
2023/09/15 12:47:55;;;;;;;2.60;1.17;;;;;;;;;;5029716;28;20472;-73
2023/09/15 12:50:21;;;;;;;2.83;1.43;;;;;;;;;;5033738;28;20020;-73
2023/09/15 12:52:46;;;;;;;4.70;1.50;;;;;;;;;;5024897;28;20488;-73
2023/09/15 12:55:11;;;;;;;4.70;1.27;;;;;;;;;;5032364;28;20272;-73
2023/09/15 12:57:37;;;;;;;2.38;0.70;;;;;;;;;;5034046;28;20029;-73
2023/09/15 13:00:03;;;;;;;3.13;0.90;;;;;;;;;;5034647;28;20506;-73
2023/09/15 13:02:28;;;;;;;4.82;1.23;;;;;;;;;;5027221;28;20017;-73
2023/09/15 13:04:53;;;;;;;4.50;1.27;;;;;;;;;;5022389;28;20114;-73
2023/09/15 13:07:19;;;;;;;3.80;1.60;;;;;;;;;;5027565;28;20021;-73
2023/09/15 13:09:45;;;;;;;2.75;1.45;;;;;;;;;;5030703;28;20113;-73
2023/09/15 13:12:10;;;;;;;7.07;1.70;;;;;;;;;;5022785;28;20010;-73
2023/09/15 13:14:35;;;;;;;1.23;0.80;;;;;;;;;;5028759;28;20059;-73
2023/09/15 13:17:00;;;;;;;5.17;1.40;;;;;;;;;;5027567;28;20298;-73
2023/09/15 13:19:26;;;;;;;4.68;1.90;;;;;;;;;;5025325;28;20029;-73
2023/09/15 13:21:51;;;;;;;1.63;1.00;;;;;;;;;;5028783;28;20025;-73
2023/09/15 13:24:16;;;;;;;3.78;1.73;;;;;;;;;;5038490;28;20650;-73
2023/09/15 13:26:41;;;;;;;6.05;1.40;;;;;;;;;;5031502;28;20037;-73
2023/09/15 13:29:07;;;;;;;4.13;1.58;;;;;;;;;;5023727;28;20048;-73
2023/09/15 13:31:32;;;;;;;4.95;1.20;;;;;;;;;;5031358;28;20033;-73
2023/09/15 13:33:57;;;;;;;4.00;1.67;;;;;;;;;;5022151;28;20033;-73
2023/09/15 13:36:23;;;;;;;4.60;1.70;;;;;;;;;;5029322;28;20026;-73
2023/09/15 13:38:51;;;;;;;3.30;1.40;;;;;;;;;;5035227;28;20709;-73
2023/09/15 13:41:16;;;;;;;8.23;1.38;;;;;;;;;;5029018;28;20048;-73
2023/09/15 13:43:41;;;;;;;3.28;1.60;;;;;;;;;;5027091;28;20068;-73
2023/09/15 13:46:08;;;;;;;8.98;1.45;;;;;;;;;;5032895;28;20021;-73
2023/09/15 13:48:33;;;;;;;2.22;1.40;;;;;;;;;;5033814;28;20036;-73
2023/09/15 13:50:58;;;;;;;2.77;1.63;;;;;;;;;;5037347;28;20446;-73
2023/09/15 13:53:23;;;;;;;2.57;2.07;;;;;;;;;;5034791;28;20390;-72
2023/09/15 13:55:48;;;;;;;5.78;1.92;;;;;;;;;;5025594;28;20025;-73
2023/09/15 13:58:17;;;;;;;3.47;1.60;;;;;;;;;;5029539;28;20110;-73
2023/09/15 14:00:54;;;;;;;2.35;1.50;;;;;;;;;;5023955;28;20028;-73
2023/09/15 14:03:20;;;;;;;3.70;1.85;;;;;;;;;;5025140;28;20056;-73
2023/09/15 14:05:45;;;;;;;6.63;1.30;;;;;;;;;;5036765;28;20456;-73
2023/09/15 14:08:10;;;;;;;4.23;1.47;;;;;;;;;;5024033;28;20025;-72
2023/09/15 14:10:35;;;;;;;3.93;1.40;;;;;;;;;;5027389;28;20021;-73
2023/09/15 14:13:00;;;;;;;2.35;1.45;;;;;;;;;;5029132;28;20124;-73
2023/09/15 14:15:26;;;;;;;4.95;1.95;;;;;;;;;;5028317;28;20084;-73
2023/09/15 14:17:51;;;;;;;2.40;1.42;;;;;;;;;;5026970;28;20025;-73
2023/09/15 14:20:16;;;;;;;5.47;2.08;;;;;;;;;;5029180;28;20060;-73
2023/09/15 14:22:41;;;;;;;6.35;1.88;;;;;;;;;;5029208;28;20026;-73
2023/09/15 14:25:07;;;;;;;5.90;1.80;;;;;;;;;;5020897;28;20482;-73
2023/09/15 14:27:33;;;;;;;4.25;2.10;;;;;;;;;;5030564;28;20745;-73
2023/09/15 14:29:59;;;;;;;3.05;1.30;;;;;;;;;;5024671;28;20028;-73
2023/09/15 14:32:25;;;;;;;2.53;1.80;;;;;;;;;;5026245;28;20013;-73
2023/09/15 14:34:50;;;;;;;5.47;1.35;;;;;;;;;;5026908;28;20425;-73